CheckWX is a tool to help pilots better visualize weather data.  It is not intended as a substitute for an official pre-flight weather briefing.

13:05:01 UTC

KROC TAF
Greater Rochester International Airport
Rochester, New York, USA
KROC 271139Z 2712/2812 28010KT 5SM -SN OVC015 FM271500 29010G18KT P6SM OVC015 FM272300 30011KT P6SM BKN015 FM280500 30010KT 5SM -SHSN OVC012

Jan-27@
12:00 UTC

Jan-27 @ 12:00 UTC

Jan-27@
15:00 UTC

Jan-27 @ 15:00 UTC

KROC 271139Z 2712/2812 28010KT 5SM -SN OVC015
Wind
  • 280° at 10 KTS
Conditions
Light Snow
Cloud Levels
  • Overcast at 1,500' AGL

Jan-27@
15:00 UTC

Jan-27 @ 15:00 UTC

Jan-27@
23:00 UTC

Jan-27 @ 23:00 UTC

FM271500 29010G18KT P6SM OVC015

From

From Standard forecast or significant change

Wind
  • 290° at 10 KTS
  • {Gusting to 18 KTS
Cloud Levels
  • Overcast at 1,500' AGL

Jan-27@
23:00 UTC

Jan-27 @ 23:00 UTC

Jan-28@
05:00 UTC

Jan-28 @ 05:00 UTC

FM272300 30011KT P6SM BKN015

From

From Standard forecast or significant change

Wind
  • 300° at 11 KTS
Cloud Levels
  • Broken at 1,500' AGL

Jan-28@
05:00 UTC

Jan-28 @ 05:00 UTC

Jan-28@
12:00 UTC

Jan-28 @ 12:00 UTC

FM280500 30010KT 5SM -SHSN OVC012

From

From Standard forecast or significant change

Wind
  • 300° at 10 KTS
Conditions
Light Snow
Cloud Levels
  • Overcast at 1,200' AGL